sensor_id;sensor_type;location;lat;lon;timestamp;P1;durP1;ratioP1;P2;durP2;ratioP2
71048;SDS011;58704;53.358;-6.238;2023-07-20T00:00:44;4.07;;;2.90;;
71048;SDS011;58704;53.358;-6.238;2023-07-20T00:03:10;3.90;;;2.47;;
71048;SDS011;58704;53.358;-6.238;2023-07-20T00:05:42;4.63;;;2.30;;
71048;SDS011;58704;53.358;-6.238;2023-07-20T00:08:08;4.20;;;2.43;;
71048;SDS011;58704;53.358;-6.238;2023-07-20T00:10:33;5.10;;;2.70;;
71048;SDS011;58704;53.358;-6.238;2023-07-20T00:12:58;4.53;;;2.77;;
71048;SDS011;58704;53.358;-6.238;2023-07-20T00:15:24;5.87;;;2.90;;
71048;SDS011;58704;53.358;-6.238;2023-07-20T00:17:49;3.43;;;2.80;;
71048;SDS011;58704;53.358;-6.238;2023-07-20T00:20:15;4.03;;;2.70;;
71048;SDS011;58704;53.358;-6.238;2023-07-20T00:22:40;6.83;;;3.10;;
71048;SDS011;58704;53.358;-6.238;2023-07-20T00:25:05;3.97;;;3.13;;
71048;SDS011;58704;53.358;-6.238;2023-07-20T00:27:31;4.17;;;2.90;;
71048;SDS011;58704;53.358;-6.238;2023-07-20T00:29:56;3.47;;;2.70;;
71048;SDS011;58704;53.358;-6.238;2023-07-20T00:32:22;5.50;;;3.10;;
71048;SDS011;58704;53.358;-6.238;2023-07-20T00:34:47;4.33;;;2.90;;
71048;SDS011;58704;53.358;-6.238;2023-07-20T00:37:13;7.07;;;3.17;;
71048;SDS011;58704;53.358;-6.238;2023-07-20T00:39:38;3.30;;;2.67;;
71048;SDS011;58704;53.358;-6.238;2023-07-20T00:42:03;5.07;;;3.45;;
71048;SDS011;58704;53.358;-6.238;2023-07-20T00:44:29;5.80;;;2.90;;
71048;SDS011;58704;53.358;-6.238;2023-07-20T00:46:55;6.03;;;2.85;;
71048;SDS011;58704;53.358;-6.238;2023-07-20T00:49:20;6.27;;;2.60;;
71048;SDS011;58704;53.358;-6.238;2023-07-20T00:51:47;4.10;;;3.05;;
71048;SDS011;58704;53.358;-6.238;2023-07-20T00:54:13;4.07;;;2.78;;
71048;SDS011;58704;53.358;-6.238;2023-07-20T00:56:40;5.53;;;4.03;;
71048;SDS011;58704;53.358;-6.238;2023-07-20T00:59:05;5.43;;;3.05;;
71048;SDS011;58704;53.358;-6.238;2023-07-20T01:01:30;5.57;;;3.17;;
71048;SDS011;58704;53.358;-6.238;2023-07-20T01:03:56;4.20;;;3.00;;
71048;SDS011;58704;53.358;-6.238;2023-07-20T01:06:26;3.10;;;2.80;;
71048;SDS011;58704;53.358;-6.238;2023-07-20T01:09:11;8.07;;;3.20;;
71048;SDS011;58704;53.358;-6.238;2023-07-20T01:14:25;4.38;;;2.70;;
71048;SDS011;58704;53.358;-6.238;2023-07-20T01:16:50;6.77;;;3.20;;
71048;SDS011;58704;53.358;-6.238;2023-07-20T01:19:17;6.63;;;3.00;;
71048;SDS011;58704;53.358;-6.238;2023-07-20T01:30:14;5.68;;;3.38;;
71048;SDS011;58704;53.358;-6.238;2023-07-20T01:32:46;6.23;;;3.27;;
71048;SDS011;58704;53.358;-6.238;2023-07-20T01:35:13;4.97;;;3.10;;
71048;SDS011;58704;53.358;-6.238;2023-07-20T01:37:40;5.75;;;3.30;;
71048;SDS011;58704;53.358;-6.238;2023-07-20T01:40:06;4.80;;;2.78;;
71048;SDS011;58704;53.358;-6.238;2023-07-20T01:42:32;3.92;;;2.63;;
71048;SDS011;58704;53.358;-6.238;2023-07-20T01:44:58;5.00;;;2.70;;
71048;SDS011;58704;53.358;-6.238;2023-07-20T01:47:23;3.43;;;2.90;;
71048;SDS011;58704;53.358;-6.238;2023-07-20T01:49:48;3.80;;;2.93;;
71048;SDS011;58704;53.358;-6.238;2023-07-20T01:52:14;6.40;;;3.43;;
71048;SDS011;58704;53.358;-6.238;2023-07-20T01:54:40;4.50;;;2.88;;
71048;SDS011;58704;53.358;-6.238;2023-07-20T01:57:05;3.63;;;2.80;;
71048;SDS011;58704;53.358;-6.238;2023-07-20T01:59:31;3.85;;;2.75;;
71048;SDS011;58704;53.358;-6.238;2023-07-20T02:01:56;5.07;;;2.87;;
71048;SDS011;58704;53.358;-6.238;2023-07-20T02:04:21;4.10;;;2.63;;
71048;SDS011;58704;53.358;-6.238;2023-07-20T02:06:47;3.80;;;2.80;;
71048;SDS011;58704;53.358;-6.238;2023-07-20T02:09:12;3.40;;;2.37;;
71048;SDS011;58704;53.358;-6.238;2023-07-20T02:11:37;5.32;;;2.72;;
71048;SDS011;58704;53.358;-6.238;2023-07-20T02:14:03;4.57;;;3.07;;
71048;SDS011;58704;53.358;-6.238;2023-07-20T02:16:28;6.13;;;3.50;;
71048;SDS011;58704;53.358;-6.238;2023-07-20T02:18:54;5.93;;;3.30;;
71048;SDS011;58704;53.358;-6.238;2023-07-20T02:21:21;4.65;;;3.30;;
71048;SDS011;58704;53.358;-6.238;2023-07-20T02:23:48;6.43;;;3.80;;
71048;SDS011;58704;53.358;-6.238;2023-07-20T02:26:13;7.17;;;3.30;;
71048;SDS011;58704;53.358;-6.238;2023-07-20T02:28:39;5.80;;;3.25;;
71048;SDS011;58704;53.358;-6.238;2023-07-20T02:31:06;6.10;;;3.65;;
71048;SDS011;58704;53.358;-6.238;2023-07-20T02:33:31;6.63;;;3.85;;
71048;SDS011;58704;53.358;-6.238;2023-07-20T02:35:57;6.73;;;3.80;;
71048;SDS011;58704;53.358;-6.238;2023-07-20T02:38:22;7.73;;;3.80;;
71048;SDS011;58704;53.358;-6.238;2023-07-20T02:40:47;4.40;;;3.30;;
71048;SDS011;58704;53.358;-6.238;2023-07-20T02:43:13;6.10;;;3.00;;
71048;SDS011;58704;53.358;-6.238;2023-07-20T02:45:41;4.13;;;2.90;;
71048;SDS011;58704;53.358;-6.238;2023-07-20T02:48:09;4.63;;;3.17;;
71048;SDS011;58704;53.358;-6.238;2023-07-20T02:50:35;5.40;;;3.00;;
71048;SDS011;58704;53.358;-6.238;2023-07-20T02:53:01;6.80;;;3.33;;
71048;SDS011;58704;53.358;-6.238;2023-07-20T02:55:27;5.70;;;3.10;;
71048;SDS011;58704;53.358;-6.238;2023-07-20T02:57:52;4.37;;;3.17;;
71048;SDS011;58704;53.358;-6.238;2023-07-20T03:00:18;5.50;;;3.17;;
71048;SDS011;58704;53.358;-6.238;2023-07-20T03:02:44;6.50;;;3.35;;
71048;SDS011;58704;53.358;-6.238;2023-07-20T03:05:13;4.55;;;3.25;;
71048;SDS011;58704;53.358;-6.238;2023-07-20T03:07:38;3.40;;;2.83;;
71048;SDS011;58704;53.358;-6.238;2023-07-20T03:10:04;5.47;;;3.30;;
71048;SDS011;58704;53.358;-6.238;2023-07-20T03:12:34;11.73;;;3.40;;
71048;SDS011;58704;53.358;-6.238;2023-07-20T03:14:59;4.50;;;3.13;;
71048;SDS011;58704;53.358;-6.238;2023-07-20T03:17:25;7.25;;;3.10;;
71048;SDS011;58704;53.358;-6.238;2023-07-20T03:19:50;5.47;;;3.00;;
71048;SDS011;58704;53.358;-6.238;2023-07-20T03:22:15;4.37;;;3.10;;
71048;SDS011;58704;53.358;-6.238;2023-07-20T03:24:41;5.67;;;3.40;;
71048;SDS011;58704;53.358;-6.238;2023-07-20T03:27:06;4.23;;;3.27;;
71048;SDS011;58704;53.358;-6.238;2023-07-20T03:29:32;5.03;;;3.25;;
71048;SDS011;58704;53.358;-6.238;2023-07-20T03:31:58;7.83;;;3.37;;
71048;SDS011;58704;53.358;-6.238;2023-07-20T03:34:24;5.90;;;3.20;;
71048;SDS011;58704;53.358;-6.238;2023-07-20T03:36:52;3.78;;;3.10;;
71048;SDS011;58704;53.358;-6.238;2023-07-20T03:39:18;7.25;;;3.45;;
71048;SDS011;58704;53.358;-6.238;2023-07-20T03:41:44;7.43;;;3.73;;
71048;SDS011;58704;53.358;-6.238;2023-07-20T03:44:09;6.43;;;3.42;;
71048;SDS011;58704;53.358;-6.238;2023-07-20T03:46:35;6.70;;;3.97;;
71048;SDS011;58704;53.358;-6.238;2023-07-20T03:49:00;7.07;;;3.77;;
71048;SDS011;58704;53.358;-6.238;2023-07-20T03:51:26;10.07;;;4.00;;
71048;SDS011;58704;53.358;-6.238;2023-07-20T03:53:51;10.63;;;3.50;;
71048;SDS011;58704;53.358;-6.238;2023-07-20T03:56:17;7.47;;;3.43;;
71048;SDS011;58704;53.358;-6.238;2023-07-20T03:58:42;6.87;;;3.63;;
71048;SDS011;58704;53.358;-6.238;2023-07-20T04:01:08;6.78;;;3.42;;
71048;SDS011;58704;53.358;-6.238;2023-07-20T04:03:34;7.50;;;3.92;;
71048;SDS011;58704;53.358;-6.238;2023-07-20T04:06:00;7.18;;;3.65;;
71048;SDS011;58704;53.358;-6.238;2023-07-20T04:08:26;6.47;;;4.00;;
71048;SDS011;58704;53.358;-6.238;2023-07-20T04:10:51;5.40;;;3.40;;
71048;SDS011;58704;53.358;-6.238;2023-07-20T04:13:17;5.78;;;3.22;;
71048;SDS011;58704;53.358;-6.238;2023-07-20T04:15:42;7.17;;;3.50;;
71048;SDS011;58704;53.358;-6.238;2023-07-20T04:18:08;6.73;;;3.37;;
71048;SDS011;58704;53.358;-6.238;2023-07-20T04:20:33;7.53;;;3.83;;
71048;SDS011;58704;53.358;-6.238;2023-07-20T04:22:58;4.97;;;3.50;;
71048;SDS011;58704;53.358;-6.238;2023-07-20T04:25:24;8.73;;;3.87;;
71048;SDS011;58704;53.358;-6.238;2023-07-20T04:27:50;7.28;;;3.63;;
71048;SDS011;58704;53.358;-6.238;2023-07-20T04:30:17;5.88;;;3.47;;
71048;SDS011;58704;53.358;-6.238;2023-07-20T04:32:45;6.37;;;3.27;;
71048;SDS011;58704;53.358;-6.238;2023-07-20T04:35:11;7.55;;;3.55;;
71048;SDS011;58704;53.358;-6.238;2023-07-20T04:37:42;6.90;;;3.53;;
71048;SDS011;58704;53.358;-6.238;2023-07-20T04:40:10;6.80;;;3.80;;
71048;SDS011;58704;53.358;-6.238;2023-07-20T04:42:37;6.82;;;3.47;;
71048;SDS011;58704;53.358;-6.238;2023-07-20T04:45:02;6.37;;;3.50;;
71048;SDS011;58704;53.358;-6.238;2023-07-20T04:47:30;6.07;;;3.50;;
71048;SDS011;58704;53.358;-6.238;2023-07-20T04:49:55;8.48;;;3.90;;
71048;SDS011;58704;53.358;-6.238;2023-07-20T04:52:21;6.47;;;3.53;;
71048;SDS011;58704;53.358;-6.238;2023-07-20T04:54:48;5.72;;;4.10;;
71048;SDS011;58704;53.358;-6.238;2023-07-20T04:57:13;5.77;;;3.73;;
71048;SDS011;58704;53.358;-6.238;2023-07-20T04:59:38;7.20;;;4.13;;
71048;SDS011;58704;53.358;-6.238;2023-07-20T05:02:04;7.27;;;3.93;;
71048;SDS011;58704;53.358;-6.238;2023-07-20T05:04:29;7.17;;;3.80;;
71048;SDS011;58704;53.358;-6.238;2023-07-20T05:06:54;5.43;;;3.67;;
71048;SDS011;58704;53.358;-6.238;2023-07-20T05:09:20;7.90;;;4.20;;
71048;SDS011;58704;53.358;-6.238;2023-07-20T05:11:45;6.57;;;4.27;;
71048;SDS011;58704;53.358;-6.238;2023-07-20T05:14:12;7.82;;;4.05;;
71048;SDS011;58704;53.358;-6.238;2023-07-20T05:16:38;6.13;;;4.00;;
71048;SDS011;58704;53.358;-6.238;2023-07-20T05:19:03;7.57;;;4.10;;
71048;SDS011;58704;53.358;-6.238;2023-07-20T05:21:29;6.60;;;4.13;;
71048;SDS011;58704;53.358;-6.238;2023-07-20T05:23:54;6.60;;;4.40;;
71048;SDS011;58704;53.358;-6.238;2023-07-20T05:26:20;7.03;;;4.27;;
71048;SDS011;58704;53.358;-6.238;2023-07-20T05:28:45;9.33;;;4.57;;
71048;SDS011;58704;53.358;-6.238;2023-07-20T05:31:10;6.13;;;3.90;;
71048;SDS011;58704;53.358;-6.238;2023-07-20T05:33:36;8.37;;;4.20;;
71048;SDS011;58704;53.358;-6.238;2023-07-20T05:36:01;8.57;;;4.40;;
71048;SDS011;58704;53.358;-6.238;2023-07-20T05:38:26;7.43;;;3.90;;
71048;SDS011;58704;53.358;-6.238;2023-07-20T05:40:52;8.97;;;4.90;;
71048;SDS011;58704;53.358;-6.238;2023-07-20T05:43:17;8.50;;;5.33;;
71048;SDS011;58704;53.358;-6.238;2023-07-20T05:45:43;8.83;;;4.90;;
71048;SDS011;58704;53.358;-6.238;2023-07-20T05:48:09;9.67;;;4.80;;
71048;SDS011;58704;53.358;-6.238;2023-07-20T05:50:37;9.18;;;4.90;;
71048;SDS011;58704;53.358;-6.238;2023-07-20T05:53:03;6.72;;;4.20;;
71048;SDS011;58704;53.358;-6.238;2023-07-20T05:55:28;7.10;;;4.50;;
71048;SDS011;58704;53.358;-6.238;2023-07-20T05:57:53;7.50;;;4.43;;
71048;SDS011;58704;53.358;-6.238;2023-07-20T06:00:20;7.50;;;4.43;;
71048;SDS011;58704;53.358;-6.238;2023-07-20T06:02:51;6.78;;;4.40;;
71048;SDS011;58704;53.358;-6.238;2023-07-20T06:05:18;6.05;;;4.18;;
71048;SDS011;58704;53.358;-6.238;2023-07-20T06:07:44;12.67;;;4.57;;
71048;SDS011;58704;53.358;-6.238;2023-07-20T06:10:09;11.10;;;4.43;;
71048;SDS011;58704;53.358;-6.238;2023-07-20T06:12:34;6.33;;;4.47;;
71048;SDS011;58704;53.358;-6.238;2023-07-20T06:15:05;7.37;;;4.67;;
71048;SDS011;58704;53.358;-6.238;2023-07-20T06:17:35;6.82;;;4.63;;
71048;SDS011;58704;53.358;-6.238;2023-07-20T06:20:00;10.20;;;5.00;;
71048;SDS011;58704;53.358;-6.238;2023-07-20T06:22:27;8.13;;;4.53;;
71048;SDS011;58704;53.358;-6.238;2023-07-20T06:24:53;12.00;;;5.63;;
71048;SDS011;58704;53.358;-6.238;2023-07-20T06:27:18;9.60;;;5.33;;
71048;SDS011;58704;53.358;-6.238;2023-07-20T06:29:43;8.87;;;5.60;;
71048;SDS011;58704;53.358;-6.238;2023-07-20T06:32:09;9.85;;;5.50;;
71048;SDS011;58704;53.358;-6.238;2023-07-20T06:34:34;12.20;;;5.87;;
71048;SDS011;58704;53.358;-6.238;2023-07-20T06:37:03;11.13;;;5.70;;
71048;SDS011;58704;53.358;-6.238;2023-07-20T06:39:29;9.53;;;5.33;;
71048;SDS011;58704;53.358;-6.238;2023-07-20T06:41:54;9.10;;;5.05;;
71048;SDS011;58704;53.358;-6.238;2023-07-20T06:44:20;8.17;;;4.93;;
71048;SDS011;58704;53.358;-6.238;2023-07-20T06:46:45;9.03;;;4.70;;
71048;SDS011;58704;53.358;-6.238;2023-07-20T06:49:15;13.17;;;5.77;;
71048;SDS011;58704;53.358;-6.238;2023-07-20T06:51:49;14.25;;;5.72;;
71048;SDS011;58704;53.358;-6.238;2023-07-20T06:54:14;10.27;;;5.63;;
71048;SDS011;58704;53.358;-6.238;2023-07-20T06:56:40;11.43;;;5.15;;
71048;SDS011;58704;53.358;-6.238;2023-07-20T06:59:06;12.23;;;5.10;;
71048;SDS011;58704;53.358;-6.238;2023-07-20T07:01:31;9.97;;;5.30;;
71048;SDS011;58704;53.358;-6.238;2023-07-20T07:03:56;9.73;;;4.68;;
71048;SDS011;58704;53.358;-6.238;2023-07-20T07:06:22;10.43;;;5.60;;
71048;SDS011;58704;53.358;-6.238;2023-07-20T07:08:48;9.15;;;5.38;;
71048;SDS011;58704;53.358;-6.238;2023-07-20T07:11:13;13.50;;;5.07;;
71048;SDS011;58704;53.358;-6.238;2023-07-20T07:13:39;7.53;;;4.70;;
71048;SDS011;58704;53.358;-6.238;2023-07-20T07:16:04;11.03;;;5.37;;
71048;SDS011;58704;53.358;-6.238;2023-07-20T07:18:30;8.60;;;5.25;;
71048;SDS011;58704;53.358;-6.238;2023-07-20T07:20:55;10.07;;;5.90;;
71048;SDS011;58704;53.358;-6.238;2023-07-20T07:23:20;9.90;;;6.03;;
71048;SDS011;58704;53.358;-6.238;2023-07-20T07:25:46;14.53;;;6.33;;
71048;SDS011;58704;53.358;-6.238;2023-07-20T07:28:12;10.32;;;6.40;;
71048;SDS011;58704;53.358;-6.238;2023-07-20T07:30:37;12.03;;;6.30;;
71048;SDS011;58704;53.358;-6.238;2023-07-20T07:33:03;12.55;;;5.95;;
71048;SDS011;58704;53.358;-6.238;2023-07-20T07:35:28;11.37;;;6.10;;
71048;SDS011;58704;53.358;-6.238;2023-07-20T07:37:54;12.32;;;6.80;;
71048;SDS011;58704;53.358;-6.238;2023-07-20T07:40:20;13.30;;;6.93;;
71048;SDS011;58704;53.358;-6.238;2023-07-20T07:42:45;14.37;;;6.73;;
71048;SDS011;58704;53.358;-6.238;2023-07-20T07:45:10;11.30;;;6.78;;
71048;SDS011;58704;53.358;-6.238;2023-07-20T07:47:36;12.60;;;6.80;;
71048;SDS011;58704;53.358;-6.238;2023-07-20T07:50:02;13.87;;;7.13;;
71048;SDS011;58704;53.358;-6.238;2023-07-20T07:52:28;11.07;;;6.65;;
71048;SDS011;58704;53.358;-6.238;2023-07-20T07:54:53;12.77;;;6.77;;
71048;SDS011;58704;53.358;-6.238;2023-07-20T07:57:18;12.30;;;6.63;;
71048;SDS011;58704;53.358;-6.238;2023-07-20T07:59:44;12.60;;;7.13;;
71048;SDS011;58704;53.358;-6.238;2023-07-20T08:02:09;16.97;;;8.23;;
71048;SDS011;58704;53.358;-6.238;2023-07-20T08:04:35;14.80;;;8.63;;
71048;SDS011;58704;53.358;-6.238;2023-07-20T08:07:02;28.20;;;15.80;;
71048;SDS011;58704;53.358;-6.238;2023-07-20T08:09:28;13.93;;;7.13;;
71048;SDS011;58704;53.358;-6.238;2023-07-20T08:11:54;16.35;;;9.23;;
71048;SDS011;58704;53.358;-6.238;2023-07-20T08:14:19;13.43;;;7.83;;
71048;SDS011;58704;53.358;-6.238;2023-07-20T08:16:45;17.07;;;8.73;;
71048;SDS011;58704;53.358;-6.238;2023-07-20T08:19:11;15.65;;;8.80;;
71048;SDS011;58704;53.358;-6.238;2023-07-20T08:21:36;15.67;;;8.57;;
71048;SDS011;58704;53.358;-6.238;2023-07-20T08:24:01;15.80;;;8.63;;
71048;SDS011;58704;53.358;-6.238;2023-07-20T08:26:27;13.37;;;7.73;;
71048;SDS011;58704;53.358;-6.238;2023-07-20T08:28:53;14.87;;;9.60;;
71048;SDS011;58704;53.358;-6.238;2023-07-20T08:31:18;17.60;;;8.20;;
71048;SDS011;58704;53.358;-6.238;2023-07-20T08:33:44;14.33;;;8.07;;
71048;SDS011;58704;53.358;-6.238;2023-07-20T08:36:09;15.60;;;8.00;;
71048;SDS011;58704;53.358;-6.238;2023-07-20T08:38:34;13.05;;;7.50;;
71048;SDS011;58704;53.358;-6.238;2023-07-20T08:41:00;14.63;;;8.13;;
71048;SDS011;58704;53.358;-6.238;2023-07-20T08:43:27;12.10;;;7.78;;
71048;SDS011;58704;53.358;-6.238;2023-07-20T08:45:54;10.63;;;7.67;;
71048;SDS011;58704;53.358;-6.238;2023-07-20T08:48:21;12.90;;;7.30;;
71048;SDS011;58704;53.358;-6.238;2023-07-20T08:50:50;11.48;;;7.57;;
71048;SDS011;58704;53.358;-6.238;2023-07-20T08:53:17;11.63;;;7.17;;
71048;SDS011;58704;53.358;-6.238;2023-07-20T08:55:46;11.35;;;7.70;;
71048;SDS011;58704;53.358;-6.238;2023-07-20T08:58:13;10.23;;;7.35;;
71048;SDS011;58704;53.358;-6.238;2023-07-20T09:00:40;10.60;;;7.03;;
71048;SDS011;58704;53.358;-6.238;2023-07-20T09:03:06;8.95;;;6.55;;
71048;SDS011;58704;53.358;-6.238;2023-07-20T09:05:32;13.40;;;7.00;;
71048;SDS011;58704;53.358;-6.238;2023-07-20T09:07:57;11.37;;;6.80;;
71048;SDS011;58704;53.358;-6.238;2023-07-20T09:10:23;9.23;;;5.90;;
71048;SDS011;58704;53.358;-6.238;2023-07-20T09:12:49;9.13;;;6.82;;
71048;SDS011;58704;53.358;-6.238;2023-07-20T09:15:15;9.75;;;6.13;;
71048;SDS011;58704;53.358;-6.238;2023-07-20T09:17:45;9.10;;;6.43;;
71048;SDS011;58704;53.358;-6.238;2023-07-20T09:20:14;8.48;;;6.30;;
71048;SDS011;58704;53.358;-6.238;2023-07-20T09:22:42;8.13;;;5.63;;
71048;SDS011;58704;53.358;-6.238;2023-07-20T09:27:43;9.15;;;6.38;;
71048;SDS011;58704;53.358;-6.238;2023-07-20T09:30:11;8.00;;;5.90;;
71048;SDS011;58704;53.358;-6.238;2023-07-20T09:32:42;12.85;;;6.38;;
71048;SDS011;58704;53.358;-6.238;2023-07-20T09:35:29;8.18;;;6.20;;
71048;SDS011;58704;53.358;-6.238;2023-07-20T09:37:55;8.00;;;5.85;;
71048;SDS011;58704;53.358;-6.238;2023-07-20T09:40:24;7.90;;;5.25;;
71048;SDS011;58704;53.358;-6.238;2023-07-20T09:42:50;7.80;;;6.00;;
71048;SDS011;58704;53.358;-6.238;2023-07-20T09:45:17;8.05;;;6.22;;
71048;SDS011;58704;53.358;-6.238;2023-07-20T09:47:42;9.50;;;5.30;;
71048;SDS011;58704;53.358;-6.238;2023-07-20T09:50:08;7.72;;;5.53;;
71048;SDS011;58704;53.358;-6.238;2023-07-20T09:52:41;8.40;;;5.53;;
71048;SDS011;58704;53.358;-6.238;2023-07-20T09:55:09;7.90;;;5.73;;
71048;SDS011;58704;53.358;-6.238;2023-07-20T09:57:37;9.20;;;6.13;;
71048;SDS011;58704;53.358;-6.238;2023-07-20T10:00:06;8.25;;;6.00;;
71048;SDS011;58704;53.358;-6.238;2023-07-20T10:02:45;11.17;;;6.20;;
71048;SDS011;58704;53.358;-6.238;2023-07-20T10:05:11;9.88;;;6.20;;
71048;SDS011;58704;53.358;-6.238;2023-07-20T10:07:40;11.35;;;6.82;;
71048;SDS011;58704;53.358;-6.238;2023-07-20T10:10:15;11.63;;;6.65;;
71048;SDS011;58704;53.358;-6.238;2023-07-20T10:12:42;11.50;;;6.50;;
71048;SDS011;58704;53.358;-6.238;2023-07-20T10:15:11;9.20;;;6.20;;
71048;SDS011;58704;53.358;-6.238;2023-07-20T10:18:03;10.27;;;6.40;;
71048;SDS011;58704;53.358;-6.238;2023-07-20T10:20:41;10.77;;;6.03;;
71048;SDS011;58704;53.358;-6.238;2023-07-20T10:23:07;8.20;;;5.60;;
71048;SDS011;58704;53.358;-6.238;2023-07-20T10:25:33;9.70;;;5.70;;
71048;SDS011;58704;53.358;-6.238;2023-07-20T10:28:02;7.60;;;5.53;;
71048;SDS011;58704;53.358;-6.238;2023-07-20T10:30:30;8.15;;;6.03;;
71048;SDS011;58704;53.358;-6.238;2023-07-20T10:32:55;8.70;;;6.07;;
71048;SDS011;58704;53.358;-6.238;2023-07-20T10:35:21;13.13;;;6.10;;
71048;SDS011;58704;53.358;-6.238;2023-07-20T10:40:39;9.60;;;5.88;;
71048;SDS011;58704;53.358;-6.238;2023-07-20T10:43:05;9.07;;;5.78;;
71048;SDS011;58704;53.358;-6.238;2023-07-20T10:48:04;8.57;;;6.07;;
71048;SDS011;58704;53.358;-6.238;2023-07-20T10:50:31;9.85;;;6.03;;
71048;SDS011;58704;53.358;-6.238;2023-07-20T10:53:04;9.57;;;6.10;;
71048;SDS011;58704;53.358;-6.238;2023-07-20T10:55:34;8.95;;;6.40;;
71048;SDS011;58704;53.358;-6.238;2023-07-20T10:58:07;6.40;;;5.27;;
71048;SDS011;58704;53.358;-6.238;2023-07-20T11:00:34;10.73;;;6.50;;
71048;SDS011;58704;53.358;-6.238;2023-07-20T11:02:59;9.80;;;6.07;;
71048;SDS011;58704;53.358;-6.238;2023-07-20T11:05:38;11.93;;;6.93;;
71048;SDS011;58704;53.358;-6.238;2023-07-20T11:08:05;10.65;;;6.00;;
71048;SDS011;58704;53.358;-6.238;2023-07-20T11:10:37;9.30;;;6.18;;
71048;SDS011;58704;53.358;-6.238;2023-07-20T11:13:19;11.80;;;6.57;;
71048;SDS011;58704;53.358;-6.238;2023-07-20T11:18:27;12.23;;;6.53;;
71048;SDS011;58704;53.358;-6.238;2023-07-20T11:20:52;8.85;;;6.30;;
71048;SDS011;58704;53.358;-6.238;2023-07-20T11:23:21;10.40;;;6.13;;
71048;SDS011;58704;53.358;-6.238;2023-07-20T11:25:47;8.52;;;6.28;;
71048;SDS011;58704;53.358;-6.238;2023-07-20T11:28:12;8.87;;;6.17;;
71048;SDS011;58704;53.358;-6.238;2023-07-20T11:30:38;8.30;;;5.88;;
71048;SDS011;58704;53.358;-6.238;2023-07-20T11:33:04;8.30;;;6.17;;
71048;SDS011;58704;53.358;-6.238;2023-07-20T11:35:30;9.45;;;5.63;;
71048;SDS011;58704;53.358;-6.238;2023-07-20T11:37:56;9.73;;;5.82;;
71048;SDS011;58704;53.358;-6.238;2023-07-20T11:40:22;9.37;;;6.60;;
71048;SDS011;58704;53.358;-6.238;2023-07-20T11:42:47;6.10;;;5.38;;
71048;SDS011;58704;53.358;-6.238;2023-07-20T11:45:15;9.68;;;6.25;;
71048;SDS011;58704;53.358;-6.238;2023-07-20T11:47:41;9.60;;;5.60;;
71048;SDS011;58704;53.358;-6.238;2023-07-20T11:50:07;7.72;;;5.50;;
71048;SDS011;58704;53.358;-6.238;2023-07-20T11:52:33;8.15;;;5.82;;
71048;SDS011;58704;53.358;-6.238;2023-07-20T11:54:59;7.30;;;5.73;;
71048;SDS011;58704;53.358;-6.238;2023-07-20T11:57:24;7.90;;;5.78;;
71048;SDS011;58704;53.358;-6.238;2023-07-20T11:59:56;10.17;;;6.23;;
71048;SDS011;58704;53.358;-6.238;2023-07-20T12:02:24;8.27;;;5.95;;
71048;SDS011;58704;53.358;-6.238;2023-07-20T12:04:52;8.88;;;6.05;;
71048;SDS011;58704;53.358;-6.238;2023-07-20T12:07:20;9.47;;;6.70;;
71048;SDS011;58704;53.358;-6.238;2023-07-20T12:12:34;11.85;;;6.95;;
71048;SDS011;58704;53.358;-6.238;2023-07-20T12:17:58;9.02;;;6.43;;
71048;SDS011;58704;53.358;-6.238;2023-07-20T12:23:04;9.75;;;6.35;;
71048;SDS011;58704;53.358;-6.238;2023-07-20T12:28:05;7.30;;;5.50;;
71048;SDS011;58704;53.358;-6.238;2023-07-20T12:30:31;8.55;;;6.20;;
71048;SDS011;58704;53.358;-6.238;2023-07-20T12:32:57;9.00;;;6.33;;
71048;SDS011;58704;53.358;-6.238;2023-07-20T12:35:22;12.63;;;7.00;;
71048;SDS011;58704;53.358;-6.238;2023-07-20T12:37:47;8.70;;;5.83;;
71048;SDS011;58704;53.358;-6.238;2023-07-20T12:40:14;7.32;;;6.07;;
71048;SDS011;58704;53.358;-6.238;2023-07-20T12:42:39;9.93;;;6.28;;
71048;SDS011;58704;53.358;-6.238;2023-07-20T12:45:05;10.50;;;6.93;;
71048;SDS011;58704;53.358;-6.238;2023-07-20T12:47:30;11.25;;;6.72;;
71048;SDS011;58704;53.358;-6.238;2023-07-20T12:49:56;9.83;;;6.60;;
71048;SDS011;58704;53.358;-6.238;2023-07-20T12:52:21;9.40;;;6.93;;
71048;SDS011;58704;53.358;-6.238;2023-07-20T12:54:47;10.23;;;6.73;;
71048;SDS011;58704;53.358;-6.238;2023-07-20T12:57:12;10.20;;;6.30;;
71048;SDS011;58704;53.358;-6.238;2023-07-20T12:59:37;7.43;;;6.37;;
71048;SDS011;58704;53.358;-6.238;2023-07-20T13:02:03;9.60;;;6.60;;
71048;SDS011;58704;53.358;-6.238;2023-07-20T13:04:28;10.03;;;6.70;;
71048;SDS011;58704;53.358;-6.238;2023-07-20T13:06:54;8.50;;;6.05;;
71048;SDS011;58704;53.358;-6.238;2023-07-20T13:09:20;8.00;;;5.80;;
71048;SDS011;58704;53.358;-6.238;2023-07-20T13:11:46;8.87;;;6.07;;
71048;SDS011;58704;53.358;-6.238;2023-07-20T13:14:11;8.30;;;6.23;;
71048;SDS011;58704;53.358;-6.238;2023-07-20T13:16:36;8.90;;;6.10;;
71048;SDS011;58704;53.358;-6.238;2023-07-20T13:19:02;7.50;;;5.82;;
71048;SDS011;58704;53.358;-6.238;2023-07-20T13:21:27;10.20;;;5.90;;
71048;SDS011;58704;53.358;-6.238;2023-07-20T13:23:53;8.07;;;6.67;;
71048;SDS011;58704;53.358;-6.238;2023-07-20T13:26:18;9.47;;;6.67;;
71048;SDS011;58704;53.358;-6.238;2023-07-20T13:28:44;8.97;;;6.13;;
71048;SDS011;58704;53.358;-6.238;2023-07-20T13:31:09;8.00;;;5.73;;
71048;SDS011;58704;53.358;-6.238;2023-07-20T13:33:36;8.15;;;6.47;;
71048;SDS011;58704;53.358;-6.238;2023-07-20T13:36:01;7.20;;;6.00;;
71048;SDS011;58704;53.358;-6.238;2023-07-20T13:38:27;10.35;;;6.95;;
71048;SDS011;58704;53.358;-6.238;2023-07-20T13:40:52;11.10;;;7.17;;
71048;SDS011;58704;53.358;-6.238;2023-07-20T13:43:18;10.10;;;6.80;;
71048;SDS011;58704;53.358;-6.238;2023-07-20T13:45:43;14.10;;;7.43;;
71048;SDS011;58704;53.358;-6.238;2023-07-20T13:48:08;9.60;;;7.87;;
71048;SDS011;58704;53.358;-6.238;2023-07-20T13:50:34;13.43;;;8.30;;
71048;SDS011;58704;53.358;-6.238;2023-07-20T13:52:59;11.43;;;8.10;;
71048;SDS011;58704;53.358;-6.238;2023-07-20T13:55:27;14.23;;;9.02;;
71048;SDS011;58704;53.358;-6.238;2023-07-20T13:57:53;13.73;;;9.00;;
71048;SDS011;58704;53.358;-6.238;2023-07-20T14:00:18;12.73;;;9.33;;
71048;SDS011;58704;53.358;-6.238;2023-07-20T14:02:44;11.37;;;9.07;;
71048;SDS011;58704;53.358;-6.238;2023-07-20T14:05:09;12.50;;;9.10;;
71048;SDS011;58704;53.358;-6.238;2023-07-20T14:07:35;12.95;;;9.63;;
71048;SDS011;58704;53.358;-6.238;2023-07-20T14:13:03;18.38;;;9.93;;
71048;SDS011;58704;53.358;-6.238;2023-07-20T14:15:46;13.85;;;9.77;;
71048;SDS011;58704;53.358;-6.238;2023-07-20T14:18:15;15.15;;;9.95;;
71048;SDS011;58704;53.358;-6.238;2023-07-20T14:20:42;13.88;;;10.10;;
71048;SDS011;58704;53.358;-6.238;2023-07-20T14:23:09;14.77;;;11.20;;
71048;SDS011;58704;53.358;-6.238;2023-07-20T14:25:40;14.00;;;9.43;;
71048;SDS011;58704;53.358;-6.238;2023-07-20T14:28:08;13.32;;;9.52;;
71048;SDS011;58704;53.358;-6.238;2023-07-20T14:30:34;13.48;;;9.55;;
71048;SDS011;58704;53.358;-6.238;2023-07-20T14:33:00;15.63;;;10.10;;
71048;SDS011;58704;53.358;-6.238;2023-07-20T14:35:28;15.15;;;10.02;;
71048;SDS011;58704;53.358;-6.238;2023-07-20T14:37:53;15.67;;;10.80;;
71048;SDS011;58704;53.358;-6.238;2023-07-20T14:40:22;11.45;;;9.05;;
71048;SDS011;58704;53.358;-6.238;2023-07-20T14:42:47;12.60;;;9.10;;
71048;SDS011;58704;53.358;-6.238;2023-07-20T14:45:18;13.50;;;9.23;;
71048;SDS011;58704;53.358;-6.238;2023-07-20T14:47:48;13.75;;;9.50;;
71048;SDS011;58704;53.358;-6.238;2023-07-20T14:50:21;11.63;;;9.07;;
71048;SDS011;58704;53.358;-6.238;2023-07-20T14:52:49;17.55;;;8.73;;
71048;SDS011;58704;53.358;-6.238;2023-07-20T14:55:28;11.02;;;8.05;;
71048;SDS011;58704;53.358;-6.238;2023-07-20T14:58:00;10.67;;;9.03;;
71048;SDS011;58704;53.358;-6.238;2023-07-20T15:00:36;11.25;;;8.43;;
71048;SDS011;58704;53.358;-6.238;2023-07-20T15:03:04;9.10;;;7.40;;